Denver, Missouri
Current Conditions -  °F | °C
As of 1:53 PM on Monday 24 Nov 2014 (Local Time) from KLWD Reporting Station
Overcast Overcast  
Wind Chill: 15°   Ceiling: 2400
Heat Index: 29°   Visibility: 10mi
Dew Point: 20°   Wind: 23mph
Humidity: 69%   Direction: 290°WNW
Pressure: 29.73"   Gusts: 32mph
Location:  40.4°N, 94.32°W
Report Text: KLWD 241953Z AUTO 29020G28KT 10SM OVC024 M02/M07 A2973 RMK AO2 PK WND 29030/1920 SNB19E38 SLP078 P0000 T10171067
Loading
Personal Weather Stations






























Interactive Weather Map New forecast layout! Learn more

10-Day Weather Forecast

Advertisements
Track Severe Weather on mobile